BAW76 LFPO-EGLL
Flight info
| Callsign | BAW76 |
|---|---|
| Flight time | 0h 56m |
| Altitude | 24000 |
| Route | OPALE2H OPALE DCT KESAX DCT DIMAL DCT ALESO ALESO1H |
| Aircraft | A319/M-SDE3FGIJ1KRWXY/LB1 |
Departure
| Time | 2026-05-06 14:23 |
|---|---|
| Airport | Paris-Orly Airport (LFPO) |
Arrival
| Time | 2026-05-06 15:20 |
|---|---|
| Airport | London Heathrow Airport (EGLL) |
| Time | Latitude | Longitude | Altitude | Speed | Heading |
|---|---|---|---|---|---|
| 2026-05-06 13:57 | 48.72754 | 2.35787 | 292 ft | 0 kts | 173° |
| 2026-05-06 14:14 | 48.72758 | 2.35786 | 295 ft | 3 kts | 173° |
| 2026-05-06 14:14 | 48.72780 | 2.35783 | 297 ft | 4 kts | 195° |
| 2026-05-06 14:14 | 48.72799 | 2.35803 | 294 ft | 4 kts | 244° |
| 2026-05-06 14:14 | 48.72804 | 2.35823 | 294 ft | 1 kts | 256° |
| 2026-05-06 14:15 | 48.72805 | 2.35825 | 291 ft | 0 kts | 256° |
| 2026-05-06 14:18 | 48.72804 | 2.35822 | 294 ft | 1 kts | 256° |
| 2026-05-06 14:19 | 48.72802 | 2.35811 | 291 ft | 2 kts | 256° |
| 2026-05-06 14:19 | 48.72796 | 2.35777 | 291 ft | 5 kts | 255° |
| 2026-05-06 14:19 | 48.72786 | 2.35718 | 291 ft | 7 kts | 255° |
| 2026-05-06 14:19 | 48.72779 | 2.35632 | 293 ft | 10 kts | 284° |
| 2026-05-06 14:20 | 48.72838 | 2.35568 | 291 ft | 12 kts | 337° |
| 2026-05-06 14:20 | 48.72931 | 2.35528 | 291 ft | 15 kts | 351° |
| 2026-05-06 14:20 | 48.73029 | 2.35589 | 293 ft | 18 kts | 52° |
| 2026-05-06 14:20 | 48.73103 | 2.35759 | 293 ft | 21 kts | 58° |
| 2026-05-06 14:21 | 48.73177 | 2.35936 | 294 ft | 17 kts | 57° |
| 2026-05-06 14:21 | 48.73244 | 2.36086 | 293 ft | 13 kts | 52° |
| 2026-05-06 14:21 | 48.73309 | 2.36083 | 293 ft | 12 kts | 334° |
| 2026-05-06 14:21 | 48.73386 | 2.36091 | 294 ft | 11 kts | 20° |
| 2026-05-06 14:22 | 48.73458 | 2.36098 | 295 ft | 8 kts | 355° |
| 2026-05-06 14:22 | 48.73519 | 2.36049 | 294 ft | 9 kts | 326° |
| 2026-05-06 14:22 | 48.73517 | 2.35987 | 292 ft | 5 kts | 240° |
| 2026-05-06 14:22 | 48.73499 | 2.35938 | 291 ft | 11 kts | 241° |
| 2026-05-06 14:23 | 48.73346 | 2.35508 | 293 ft | 83 kts | 242° |
| 2026-05-06 14:23 | 48.72978 | 2.34464 | 290 ft | 140 kts | 242° |
| 2026-05-06 14:23 | 48.72463 | 2.32992 | 568 ft | 163 kts | 243° |
| 2026-05-06 14:23 | 48.71923 | 2.31478 | 1233 ft | 166 kts | 242° |
| 2026-05-06 14:24 | 48.71306 | 2.30000 | 1961 ft | 166 kts | 239° |
| 2026-05-06 14:24 | 48.70651 | 2.28479 | 2469 ft | 182 kts | 239° |
| 2026-05-06 14:24 | 48.69917 | 2.26770 | 2812 ft | 208 kts | 239° |
| 2026-05-06 14:24 | 48.69080 | 2.24810 | 3375 ft | 234 kts | 239° |
| 2026-05-06 14:25 | 48.68151 | 2.22636 | 4018 ft | 258 kts | 239° |
| 2026-05-06 14:25 | 48.66861 | 2.20664 | 4929 ft | 274 kts | 210° |
| 2026-05-06 14:25 | 48.65018 | 2.20038 | 5945 ft | 282 kts | 175° |
| 2026-05-06 14:25 | 48.63170 | 2.21020 | 7020 ft | 286 kts | 147° |
| 2026-05-06 14:26 | 48.61607 | 2.22880 | 8079 ft | 288 kts | 137° |
| 2026-05-06 14:26 | 48.60136 | 2.24955 | 9077 ft | 291 kts | 136° |
| 2026-05-06 14:26 | 48.58684 | 2.27020 | 9670 ft | 296 kts | 136° |
| 2026-05-06 14:26 | 48.57178 | 2.29144 | 9870 ft | 296 kts | 139° |
| 2026-05-06 14:27 | 48.55492 | 2.31109 | 9925 ft | 321 kts | 145° |
| 2026-05-06 14:27 | 48.53588 | 2.33011 | 9924 ft | 333 kts | 147° |
| 2026-05-06 14:27 | 48.51772 | 2.35206 | 9925 ft | 336 kts | 133° |
| 2026-05-06 14:27 | 48.50454 | 2.38094 | 9919 ft | 336 kts | 114° |
| 2026-05-06 14:28 | 48.49858 | 2.41526 | 10408 ft | 342 kts | 94° |
| 2026-05-06 14:28 | 48.49937 | 2.45097 | 11325 ft | 342 kts | 84° |
| 2026-05-06 14:28 | 48.50163 | 2.48681 | 12193 ft | 344 kts | 84° |
| 2026-05-06 14:28 | 48.50390 | 2.52286 | 13001 ft | 347 kts | 84° |
| 2026-05-06 14:29 | 48.50618 | 2.55931 | 13788 ft | 351 kts | 84° |
| 2026-05-06 14:29 | 48.50849 | 2.59615 | 14549 ft | 355 kts | 84° |
| 2026-05-06 14:29 | 48.51080 | 2.63337 | 15292 ft | 358 kts | 85° |
| 2026-05-06 14:29 | 48.51312 | 2.67106 | 15996 ft | 363 kts | 85° |
| 2026-05-06 14:30 | 48.51544 | 2.70907 | 16702 ft | 366 kts | 85° |
| 2026-05-06 14:30 | 48.51778 | 2.74744 | 17376 ft | 369 kts | 85° |
| 2026-05-06 14:30 | 48.52024 | 2.78621 | 18048 ft | 373 kts | 83° |
| 2026-05-06 14:30 | 48.52584 | 2.82471 | 18699 ft | 378 kts | 73° |
| 2026-05-06 14:31 | 48.53596 | 2.86152 | 19386 ft | 382 kts | 63° |
| 2026-05-06 14:31 | 48.55035 | 2.89541 | 20058 ft | 386 kts | 52° |
| 2026-05-06 14:31 | 48.56798 | 2.92625 | 20718 ft | 390 kts | 49° |
| 2026-05-06 14:31 | 48.58571 | 2.95668 | 21347 ft | 392 kts | 49° |
| 2026-05-06 14:32 | 48.60374 | 2.98779 | 21959 ft | 395 kts | 50° |
| 2026-05-06 14:32 | 48.62195 | 3.01909 | 22557 ft | 398 kts | 47° |
| 2026-05-06 14:32 | 48.64267 | 3.04716 | 23124 ft | 402 kts | 37° |
| 2026-05-06 14:32 | 48.66652 | 3.06945 | 23656 ft | 405 kts | 27° |
| 2026-05-06 14:33 | 48.69276 | 3.08527 | 23866 ft | 407 kts | 17° |
| 2026-05-06 14:33 | 48.71988 | 3.09565 | 23913 ft | 398 kts | 14° |
| 2026-05-06 14:33 | 48.74668 | 3.10561 | 23913 ft | 395 kts | 14° |
| 2026-05-06 14:33 | 48.77331 | 3.11561 | 23915 ft | 394 kts | 14° |
| 2026-05-06 14:34 | 48.79989 | 3.12566 | 23916 ft | 394 kts | 14° |
| 2026-05-06 14:34 | 48.82654 | 3.13541 | 23914 ft | 394 kts | 11° |
| 2026-05-06 14:34 | 48.85384 | 3.13927 | 23915 ft | 395 kts | 360° |
| 2026-05-06 14:34 | 48.88111 | 3.13497 | 23915 ft | 395 kts | 348° |
| 2026-05-06 14:35 | 48.90742 | 3.12272 | 23916 ft | 396 kts | 337° |
| 2026-05-06 14:35 | 48.93208 | 3.10391 | 23912 ft | 397 kts | 332° |
| 2026-05-06 14:35 | 48.95643 | 3.08419 | 23914 ft | 397 kts | 332° |
| 2026-05-06 14:35 | 48.98078 | 3.06450 | 23917 ft | 397 kts | 332° |
| 2026-05-06 14:36 | 49.00520 | 3.04479 | 23914 ft | 397 kts | 332° |
| 2026-05-06 14:36 | 49.02953 | 3.02514 | 23915 ft | 396 kts | 332° |
| 2026-05-06 14:36 | 49.05390 | 3.00542 | 23911 ft | 397 kts | 332° |
| 2026-05-06 14:36 | 49.07829 | 2.98569 | 23914 ft | 397 kts | 332° |
| 2026-05-06 14:37 | 49.10267 | 2.96593 | 23914 ft | 397 kts | 332° |
| 2026-05-06 14:37 | 49.12694 | 2.94595 | 23910 ft | 397 kts | 329° |
| 2026-05-06 14:37 | 49.14937 | 2.92148 | 23914 ft | 396 kts | 319° |
| 2026-05-06 14:37 | 49.16995 | 2.89343 | 23914 ft | 396 kts | 318° |
| 2026-05-06 14:38 | 49.19048 | 2.86542 | 23914 ft | 396 kts | 318° |
| 2026-05-06 14:38 | 49.21109 | 2.83746 | 23915 ft | 396 kts | 319° |
| 2026-05-06 14:38 | 49.23174 | 2.80954 | 23914 ft | 396 kts | 319° |
| 2026-05-06 14:38 | 49.25239 | 2.78164 | 23917 ft | 396 kts | 319° |
| 2026-05-06 14:39 | 49.27302 | 2.75365 | 23916 ft | 396 kts | 318° |
| 2026-05-06 14:39 | 49.29363 | 2.72558 | 23919 ft | 396 kts | 318° |
| 2026-05-06 14:39 | 49.31423 | 2.69749 | 23922 ft | 396 kts | 318° |
| 2026-05-06 14:39 | 49.33459 | 2.66971 | 23923 ft | 396 kts | 318° |
| 2026-05-06 14:40 | 49.35514 | 2.64159 | 23923 ft | 397 kts | 318° |
| 2026-05-06 14:40 | 49.37571 | 2.61339 | 23929 ft | 396 kts | 318° |
| 2026-05-06 14:40 | 49.39628 | 2.58520 | 23931 ft | 396 kts | 318° |
| 2026-05-06 14:40 | 49.41686 | 2.55702 | 23934 ft | 396 kts | 318° |
| 2026-05-06 14:41 | 49.43742 | 2.52881 | 23934 ft | 396 kts | 318° |
| 2026-05-06 14:41 | 49.45793 | 2.50054 | 23932 ft | 396 kts | 318° |
| 2026-05-06 14:41 | 49.47840 | 2.47229 | 23932 ft | 396 kts | 318° |
| 2026-05-06 14:41 | 49.49891 | 2.44400 | 23933 ft | 396 kts | 318° |
| 2026-05-06 14:42 | 49.51939 | 2.41574 | 23935 ft | 395 kts | 318° |
| 2026-05-06 14:42 | 49.53987 | 2.38747 | 23934 ft | 395 kts | 318° |
| 2026-05-06 14:42 | 49.56033 | 2.35919 | 23936 ft | 396 kts | 318° |
| 2026-05-06 14:42 | 49.58083 | 2.33082 | 23939 ft | 396 kts | 318° |
| 2026-05-06 14:43 | 49.60128 | 2.30247 | 23939 ft | 395 kts | 318° |
| 2026-05-06 14:43 | 49.62173 | 2.27412 | 23943 ft | 395 kts | 318° |
| 2026-05-06 14:43 | 49.64213 | 2.24573 | 23942 ft | 395 kts | 318° |
| 2026-05-06 14:43 | 49.66256 | 2.21734 | 23940 ft | 395 kts | 318° |
| 2026-05-06 14:44 | 49.68298 | 2.18897 | 23938 ft | 395 kts | 318° |
| 2026-05-06 14:44 | 49.70341 | 2.16061 | 23940 ft | 395 kts | 318° |
| 2026-05-06 14:44 | 49.72384 | 2.13221 | 23940 ft | 395 kts | 318° |
| 2026-05-06 14:45 | 49.76462 | 2.07522 | 23942 ft | 395 kts | 317° |
| 2026-05-06 14:45 | 49.78500 | 2.04668 | 23939 ft | 395 kts | 317° |
| 2026-05-06 14:45 | 49.80537 | 2.01815 | 23946 ft | 395 kts | 317° |
| 2026-05-06 14:45 | 49.82551 | 1.98994 | 23945 ft | 395 kts | 317° |
| 2026-05-06 14:46 | 49.84587 | 1.96136 | 23945 ft | 395 kts | 317° |
| 2026-05-06 14:46 | 49.86625 | 1.93270 | 23941 ft | 395 kts | 317° |
| 2026-05-06 14:46 | 49.88656 | 1.90403 | 23948 ft | 395 kts | 317° |
| 2026-05-06 14:46 | 49.90699 | 1.87548 | 23944 ft | 395 kts | 319° |
| 2026-05-06 14:47 | 49.92803 | 1.84812 | 23941 ft | 395 kts | 321° |
| 2026-05-06 14:47 | 49.94958 | 1.82166 | 23948 ft | 395 kts | 322° |
| 2026-05-06 14:47 | 49.97134 | 1.79560 | 23951 ft | 395 kts | 322° |
| 2026-05-06 14:47 | 49.99312 | 1.76956 | 23951 ft | 395 kts | 322° |
| 2026-05-06 14:48 | 50.01482 | 1.74337 | 23949 ft | 395 kts | 322° |
| 2026-05-06 14:48 | 50.03644 | 1.71697 | 23949 ft | 395 kts | 321° |
| 2026-05-06 14:48 | 50.05800 | 1.69045 | 23953 ft | 395 kts | 322° |
| 2026-05-06 14:48 | 50.08103 | 1.66721 | 23958 ft | 395 kts | 332° |
| 2026-05-06 14:49 | 50.10587 | 1.64882 | 23955 ft | 395 kts | 335° |
| 2026-05-06 14:49 | 50.13081 | 1.63077 | 23950 ft | 395 kts | 335° |
| 2026-05-06 14:49 | 50.15574 | 1.61274 | 23952 ft | 395 kts | 335° |
| 2026-05-06 14:49 | 50.18037 | 1.59490 | 23967 ft | 395 kts | 335° |
| 2026-05-06 14:50 | 50.20557 | 1.57661 | 23966 ft | 395 kts | 335° |
| 2026-05-06 14:50 | 50.23015 | 1.55874 | 23965 ft | 394 kts | 335° |
| 2026-05-06 14:50 | 50.25500 | 1.54063 | 23960 ft | 394 kts | 335° |
| 2026-05-06 14:50 | 50.28016 | 1.52230 | 23958 ft | 394 kts | 335° |
| 2026-05-06 14:51 | 50.30498 | 1.50415 | 23959 ft | 394 kts | 335° |
| 2026-05-06 14:51 | 50.32982 | 1.48596 | 23956 ft | 394 kts | 335° |
| 2026-05-06 14:51 | 50.35432 | 1.46806 | 23962 ft | 394 kts | 335° |
| 2026-05-06 14:51 | 50.37916 | 1.44988 | 23961 ft | 394 kts | 335° |
| 2026-05-06 14:52 | 50.40430 | 1.43147 | 23956 ft | 394 kts | 334° |
| 2026-05-06 14:52 | 50.42876 | 1.41350 | 23955 ft | 393 kts | 334° |
| 2026-05-06 14:52 | 50.45349 | 1.39529 | 23949 ft | 393 kts | 334° |
| 2026-05-06 14:52 | 50.47795 | 1.37617 | 23945 ft | 393 kts | 329° |
| 2026-05-06 14:53 | 50.50020 | 1.35141 | 23948 ft | 392 kts | 319° |
| 2026-05-06 14:53 | 50.51945 | 1.32117 | 23944 ft | 391 kts | 312° |
| 2026-05-06 14:53 | 50.53786 | 1.28965 | 23951 ft | 392 kts | 312° |
| 2026-05-06 14:53 | 50.55633 | 1.25816 | 23952 ft | 392 kts | 312° |
| 2026-05-06 14:54 | 50.57485 | 1.22668 | 23954 ft | 392 kts | 312° |
| 2026-05-06 14:54 | 50.59363 | 1.19559 | 23952 ft | 392 kts | 314° |
| 2026-05-06 14:54 | 50.61283 | 1.16509 | 23967 ft | 392 kts | 314° |
| 2026-05-06 14:54 | 50.63221 | 1.13494 | 23968 ft | 392 kts | 315° |
| 2026-05-06 14:55 | 50.65162 | 1.10486 | 23968 ft | 391 kts | 315° |
| 2026-05-06 14:55 | 50.67096 | 1.07477 | 23969 ft | 391 kts | 315° |
| 2026-05-06 14:55 | 50.69024 | 1.04456 | 23970 ft | 391 kts | 314° |
| 2026-05-06 14:55 | 50.70945 | 1.01422 | 23972 ft | 390 kts | 314° |
| 2026-05-06 14:56 | 50.72858 | 0.98386 | 23975 ft | 390 kts | 314° |
| 2026-05-06 14:56 | 50.74775 | 0.95342 | 23789 ft | 390 kts | 314° |
| 2026-05-06 14:56 | 50.76676 | 0.92318 | 23366 ft | 386 kts | 314° |
| 2026-05-06 14:56 | 50.78558 | 0.89312 | 22915 ft | 383 kts | 314° |
| 2026-05-06 14:57 | 50.80420 | 0.86329 | 22455 ft | 380 kts | 314° |
| 2026-05-06 14:57 | 50.82266 | 0.83367 | 21998 ft | 376 kts | 314° |
| 2026-05-06 14:57 | 50.84091 | 0.80440 | 21525 ft | 372 kts | 314° |
| 2026-05-06 14:57 | 50.85901 | 0.77537 | 21052 ft | 368 kts | 314° |
| 2026-05-06 14:58 | 50.87691 | 0.74668 | 20570 ft | 364 kts | 314° |
| 2026-05-06 14:58 | 50.89459 | 0.71828 | 20085 ft | 361 kts | 314° |
| 2026-05-06 14:58 | 50.91212 | 0.69014 | 19587 ft | 357 kts | 314° |
| 2026-05-06 14:58 | 50.92946 | 0.66223 | 19097 ft | 354 kts | 314° |
| 2026-05-06 14:59 | 50.94660 | 0.63460 | 18611 ft | 350 kts | 314° |
| 2026-05-06 14:59 | 50.96336 | 0.60764 | 18126 ft | 346 kts | 314° |
| 2026-05-06 14:59 | 50.98026 | 0.58046 | 17545 ft | 347 kts | 314° |
| 2026-05-06 14:59 | 50.99748 | 0.55273 | 16870 ft | 349 kts | 314° |
| 2026-05-06 15:00 | 51.01423 | 0.52565 | 16234 ft | 349 kts | 314° |
| 2026-05-06 15:00 | 51.03120 | 0.49814 | 15600 ft | 348 kts | 314° |
| 2026-05-06 15:00 | 51.04811 | 0.47068 | 14957 ft | 347 kts | 314° |
| 2026-05-06 15:00 | 51.06500 | 0.44326 | 14319 ft | 346 kts | 314° |
| 2026-05-06 15:01 | 51.08182 | 0.41648 | 14029 ft | 336 kts | 315° |
| 2026-05-06 15:01 | 51.09845 | 0.39091 | 13970 ft | 332 kts | 316° |
| 2026-05-06 15:01 | 51.11522 | 0.36552 | 13987 ft | 332 kts | 316° |
| 2026-05-06 15:01 | 51.13191 | 0.34028 | 13887 ft | 329 kts | 316° |
| 2026-05-06 15:02 | 51.14829 | 0.31541 | 13635 ft | 319 kts | 316° |
| 2026-05-06 15:02 | 51.16402 | 0.29149 | 13520 ft | 306 kts | 316° |
| 2026-05-06 15:02 | 51.17915 | 0.26845 | 13319 ft | 298 kts | 316° |
| 2026-05-06 15:02 | 51.18921 | 0.25311 | 13090 ft | 295 kts | 316° |
| 2026-05-06 15:03 | 51.20399 | 0.23053 | 12727 ft | 293 kts | 315° |
| 2026-05-06 15:03 | 51.21866 | 0.20806 | 12361 ft | 292 kts | 315° |
| 2026-05-06 15:03 | 51.23304 | 0.18602 | 12003 ft | 290 kts | 316° |
| 2026-05-06 15:03 | 51.24752 | 0.16380 | 11648 ft | 288 kts | 316° |
| 2026-05-06 15:04 | 51.26187 | 0.14174 | 11282 ft | 286 kts | 316° |
| 2026-05-06 15:04 | 51.27614 | 0.11969 | 10910 ft | 285 kts | 316° |
| 2026-05-06 15:04 | 51.29031 | 0.09776 | 10554 ft | 283 kts | 316° |
| 2026-05-06 15:04 | 51.30421 | 0.07626 | 10410 ft | 272 kts | 316° |
| 2026-05-06 15:05 | 51.31747 | 0.05570 | 10283 ft | 259 kts | 315° |
| 2026-05-06 15:05 | 51.32788 | 0.03254 | 9704 ft | 264 kts | 291° |
| 2026-05-06 15:05 | 51.33065 | 0.00404 | 9516 ft | 256 kts | 273° |
| 2026-05-06 15:05 | 51.33093 | -0.02399 | 9266 ft | 251 kts | 271° |
| 2026-05-06 15:06 | 51.33091 | -0.05179 | 8916 ft | 250 kts | 271° |
| 2026-05-06 15:06 | 51.33085 | -0.07952 | 8542 ft | 248 kts | 271° |
| 2026-05-06 15:06 | 51.33077 | -0.10706 | 8195 ft | 247 kts | 271° |
| 2026-05-06 15:06 | 51.33069 | -0.13442 | 7830 ft | 246 kts | 271° |
| 2026-05-06 15:07 | 51.33059 | -0.16181 | 7471 ft | 245 kts | 271° |
| 2026-05-06 15:07 | 51.33053 | -0.18895 | 7129 ft | 243 kts | 271° |
| 2026-05-06 15:07 | 51.33049 | -0.21576 | 6984 ft | 240 kts | 271° |
| 2026-05-06 15:07 | 51.33045 | -0.24242 | 6997 ft | 240 kts | 271° |
| 2026-05-06 15:08 | 51.33041 | -0.26919 | 6998 ft | 241 kts | 271° |
| 2026-05-06 15:08 | 51.33036 | -0.29598 | 7007 ft | 241 kts | 271° |
| 2026-05-06 15:08 | 51.33030 | -0.32273 | 7013 ft | 241 kts | 271° |
| 2026-05-06 15:08 | 51.33023 | -0.34955 | 6997 ft | 241 kts | 271° |
| 2026-05-06 15:09 | 51.33016 | -0.37636 | 6998 ft | 241 kts | 271° |
| 2026-05-06 15:09 | 51.33009 | -0.40314 | 6998 ft | 241 kts | 271° |
| 2026-05-06 15:09 | 51.33001 | -0.42995 | 7012 ft | 241 kts | 271° |
| 2026-05-06 15:09 | 51.32993 | -0.45676 | 7000 ft | 241 kts | 271° |
| 2026-05-06 15:10 | 51.32984 | -0.48352 | 6999 ft | 241 kts | 271° |
| 2026-05-06 15:10 | 51.32974 | -0.51029 | 7000 ft | 241 kts | 271° |
| 2026-05-06 15:10 | 51.32965 | -0.53669 | 7006 ft | 241 kts | 271° |
| 2026-05-06 15:10 | 51.32955 | -0.56343 | 7003 ft | 241 kts | 271° |
| 2026-05-06 15:11 | 51.32946 | -0.58966 | 6997 ft | 241 kts | 271° |
| 2026-05-06 15:11 | 51.32936 | -0.61648 | 7001 ft | 241 kts | 271° |
| 2026-05-06 15:11 | 51.32924 | -0.64326 | 7002 ft | 241 kts | 271° |
| 2026-05-06 15:11 | 51.32913 | -0.67001 | 6995 ft | 241 kts | 271° |
| 2026-05-06 15:12 | 51.32902 | -0.69417 | 6986 ft | 240 kts | 271° |
| 2026-05-06 15:12 | 51.32889 | -0.72074 | 6686 ft | 239 kts | 271° |
| 2026-05-06 15:12 | 51.32872 | -0.74721 | 6306 ft | 237 kts | 271° |
| 2026-05-06 15:12 | 51.32901 | -0.77355 | 5910 ft | 236 kts | 280° |
| 2026-05-06 15:13 | 51.33573 | -0.79671 | 5532 ft | 230 kts | 313° |
| 2026-05-06 15:13 | 51.34896 | -0.80995 | 5135 ft | 226 kts | 346° |
| 2026-05-06 15:13 | 51.36450 | -0.81217 | 4752 ft | 224 kts | 360° |
| 2026-05-06 15:13 | 51.38010 | -0.81201 | 4346 ft | 224 kts | 1° |
| 2026-05-06 15:14 | 51.39566 | -0.81167 | 4025 ft | 222 kts | 1° |
| 2026-05-06 15:14 | 51.41104 | -0.81136 | 3927 ft | 219 kts | 1° |
| 2026-05-06 15:14 | 51.42626 | -0.81105 | 3505 ft | 220 kts | 1° |
| 2026-05-06 15:14 | 51.44153 | -0.81073 | 3133 ft | 219 kts | 2° |
| 2026-05-06 15:15 | 51.45573 | -0.80351 | 3001 ft | 216 kts | 33° |
| 2026-05-06 15:15 | 51.46640 | -0.78761 | 3011 ft | 206 kts | 51° |
| 2026-05-06 15:15 | 51.47331 | -0.76777 | 3016 ft | 205 kts | 68° |
| 2026-05-06 15:15 | 51.47609 | -0.74605 | 3010 ft | 192 kts | 84° |
| 2026-05-06 15:16 | 51.47624 | -0.72490 | 2990 ft | 189 kts | 86° |
| 2026-05-06 15:16 | 51.47637 | -0.70411 | 2747 ft | 184 kts | 88° |
| 2026-05-06 15:16 | 51.47649 | -0.68433 | 2515 ft | 170 kts | 89° |
| 2026-05-06 15:16 | 51.47660 | -0.66609 | 2310 ft | 160 kts | 90° |
| 2026-05-06 15:17 | 51.47670 | -0.64835 | 2090 ft | 159 kts | 92° |
| 2026-05-06 15:17 | 51.47679 | -0.63062 | 1878 ft | 160 kts | 92° |
| 2026-05-06 15:17 | 51.47689 | -0.61292 | 1668 ft | 163 kts | 92° |
| 2026-05-06 15:17 | 51.47697 | -0.59458 | 1451 ft | 166 kts | 89° |
| 2026-05-06 15:18 | 51.47707 | -0.57623 | 1225 ft | 164 kts | 86° |
| 2026-05-06 15:18 | 51.47716 | -0.55809 | 1009 ft | 158 kts | 86° |
| 2026-05-06 15:18 | 51.47722 | -0.54159 | 797 ft | 140 kts | 87° |
| 2026-05-06 15:18 | 51.47729 | -0.52643 | 624 ft | 132 kts | 87° |
| 2026-05-06 15:19 | 51.47736 | -0.51202 | 456 ft | 128 kts | 86° |
| 2026-05-06 15:19 | 51.47739 | -0.49791 | 283 ft | 126 kts | 86° |
| 2026-05-06 15:19 | 51.47751 | -0.48391 | 132 ft | 125 kts | 88° |
| 2026-05-06 15:19 | 51.47761 | -0.47073 | 89 ft | 105 kts | 89° |
| 2026-05-06 15:20 | 51.47758 | -0.46177 | 89 ft | 56 kts | 90° |
| 2026-05-06 15:20 | 51.47761 | -0.45728 | 82 ft | 38 kts | 89° |
| 2026-05-06 15:20 | 51.47718 | -0.45484 | 87 ft | 20 kts | 150° |
| 2026-05-06 15:20 | 51.47632 | -0.45470 | 85 ft | 8 kts | 185° |
| 2026-05-06 15:21 | 51.47598 | -0.45548 | 86 ft | 11 kts | 263° |
| 2026-05-06 15:21 | 51.47595 | -0.45671 | 87 ft | 12 kts | 269° |
| 2026-05-06 15:21 | 51.47595 | -0.45819 | 89 ft | 15 kts | 270° |
| 2026-05-06 15:21 | 51.47595 | -0.46003 | 89 ft | 18 kts | 270° |
| 2026-05-06 15:22 | 51.47594 | -0.46218 | 91 ft | 20 kts | 267° |
| 2026-05-06 15:22 | 51.47591 | -0.46455 | 90 ft | 22 kts | 270° |
| 2026-05-06 15:22 | 51.47591 | -0.46692 | 90 ft | 23 kts | 270° |
| 2026-05-06 15:22 | 51.47582 | -0.46948 | 89 ft | 24 kts | 268° |
| 2026-05-06 15:23 | 51.47582 | -0.47206 | 89 ft | 20 kts | 270° |
| 2026-05-06 15:23 | 51.47584 | -0.47425 | 86 ft | 22 kts | 268° |
| 2026-05-06 15:23 | 51.47580 | -0.47683 | 86 ft | 20 kts | 269° |
| 2026-05-06 15:23 | 51.47579 | -0.47915 | 87 ft | 22 kts | 269° |
| 2026-05-06 15:24 | 51.47579 | -0.48154 | 91 ft | 21 kts | 270° |
| 2026-05-06 15:24 | 51.47570 | -0.48327 | 88 ft | 14 kts | 238° |
| 2026-05-06 15:24 | 51.47479 | -0.48444 | 87 ft | 16 kts | 215° |
| 2026-05-06 15:24 | 51.47382 | -0.48476 | 87 ft | 16 kts | 180° |
| 2026-05-06 15:25 | 51.47276 | -0.48476 | 88 ft | 13 kts | 178° |
| 2026-05-06 15:25 | 51.47234 | -0.48479 | 85 ft | 2 kts | 209° |
| 2026-05-06 15:25 | 51.47232 | -0.48511 | 85 ft | 4 kts | 272° |
| 2026-05-06 15:25 | 51.47233 | -0.48557 | 87 ft | 4 kts | 270° |
| 2026-05-06 15:26 | 51.47233 | -0.48582 | 86 ft | 1 kts | 269° |
| 2026-05-06 15:26 | 51.47233 | -0.48587 | 85 ft | 0 kts | 269° |